sensor_id;sensor_type;location;lat;lon;timestamp;P1;durP1;ratioP1;P2;durP2;ratioP2
7338;SDS011;33747;49.524;8.390;2023-03-03T00:00:26;16.55;;;8.00;;
7338;SDS011;33747;49.524;8.390;2023-03-03T00:02:56;14.63;;;8.05;;
7338;SDS011;33747;49.524;8.390;2023-03-03T00:05:22;17.98;;;8.38;;
7338;SDS011;33747;49.524;8.390;2023-03-03T00:07:48;14.15;;;8.05;;
7338;SDS011;33747;49.524;8.390;2023-03-03T00:10:20;13.45;;;8.10;;
7338;SDS011;33747;49.524;8.390;2023-03-03T00:12:46;21.33;;;7.78;;
7338;SDS011;33747;49.524;8.390;2023-03-03T00:15:17;26.75;;;8.43;;
7338;SDS011;33747;49.524;8.390;2023-03-03T00:17:47;13.88;;;8.30;;
7338;SDS011;33747;49.524;8.390;2023-03-03T00:20:30;13.68;;;7.40;;
7338;SDS011;33747;49.524;8.390;2023-03-03T00:23:08;15.25;;;7.90;;
7338;SDS011;33747;49.524;8.390;2023-03-03T00:25:41;11.35;;;6.93;;
7338;SDS011;33747;49.524;8.390;2023-03-03T00:30:57;12.88;;;7.47;;
7338;SDS011;33747;49.524;8.390;2023-03-03T00:33:30;14.77;;;6.78;;
7338;SDS011;33747;49.524;8.390;2023-03-03T00:38:41;19.95;;;6.90;;
7338;SDS011;33747;49.524;8.390;2023-03-03T00:41:13;13.20;;;6.65;;
7338;SDS011;33747;49.524;8.390;2023-03-03T00:43:45;14.73;;;7.30;;
7338;SDS011;33747;49.524;8.390;2023-03-03T00:46:14;13.52;;;7.60;;
7338;SDS011;33747;49.524;8.390;2023-03-03T00:48:45;11.77;;;6.93;;
7338;SDS011;33747;49.524;8.390;2023-03-03T00:53:46;17.20;;;7.57;;
7338;SDS011;33747;49.524;8.390;2023-03-03T00:56:11;19.20;;;8.00;;
7338;SDS011;33747;49.524;8.390;2023-03-03T00:58:36;18.52;;;8.15;;
7338;SDS011;33747;49.524;8.390;2023-03-03T01:01:02;12.45;;;6.88;;
7338;SDS011;33747;49.524;8.390;2023-03-03T01:03:27;14.43;;;7.97;;
7338;SDS011;33747;49.524;8.390;2023-03-03T01:05:53;13.80;;;7.32;;
7338;SDS011;33747;49.524;8.390;2023-03-03T01:08:19;14.05;;;7.30;;
7338;SDS011;33747;49.524;8.390;2023-03-03T01:10:53;15.60;;;8.07;;
7338;SDS011;33747;49.524;8.390;2023-03-03T01:13:22;14.10;;;7.68;;
7338;SDS011;33747;49.524;8.390;2023-03-03T01:15:50;13.25;;;8.05;;
7338;SDS011;33747;49.524;8.390;2023-03-03T01:18:18;12.65;;;7.15;;
7338;SDS011;33747;49.524;8.390;2023-03-03T01:20:44;13.30;;;7.28;;
7338;SDS011;33747;49.524;8.390;2023-03-03T01:23:09;14.32;;;8.23;;
7338;SDS011;33747;49.524;8.390;2023-03-03T01:25:35;16.08;;;8.10;;
7338;SDS011;33747;49.524;8.390;2023-03-03T01:28:01;13.23;;;8.00;;
7338;SDS011;33747;49.524;8.390;2023-03-03T01:30:27;13.75;;;7.25;;
7338;SDS011;33747;49.524;8.390;2023-03-03T01:32:55;17.98;;;7.20;;
7338;SDS011;33747;49.524;8.390;2023-03-03T01:35:20;16.10;;;7.35;;
7338;SDS011;33747;49.524;8.390;2023-03-03T01:37:49;14.65;;;7.18;;
7338;SDS011;33747;49.524;8.390;2023-03-03T01:40:19;11.68;;;7.80;;
7338;SDS011;33747;49.524;8.390;2023-03-03T01:42:46;14.27;;;7.50;;
7338;SDS011;33747;49.524;8.390;2023-03-03T01:45:14;13.30;;;7.15;;
7338;SDS011;33747;49.524;8.390;2023-03-03T01:47:43;17.02;;;8.27;;
7338;SDS011;33747;49.524;8.390;2023-03-03T01:50:11;21.33;;;7.47;;
7338;SDS011;33747;49.524;8.390;2023-03-03T01:52:40;14.23;;;6.82;;
7338;SDS011;33747;49.524;8.390;2023-03-03T01:55:11;12.15;;;7.35;;
7338;SDS011;33747;49.524;8.390;2023-03-03T01:57:43;12.07;;;7.43;;
7338;SDS011;33747;49.524;8.390;2023-03-03T02:00:12;17.98;;;7.97;;
7338;SDS011;33747;49.524;8.390;2023-03-03T02:02:41;13.73;;;8.18;;
7338;SDS011;33747;49.524;8.390;2023-03-03T02:05:07;16.17;;;7.88;;
7338;SDS011;33747;49.524;8.390;2023-03-03T02:07:33;17.30;;;8.32;;
7338;SDS011;33747;49.524;8.390;2023-03-03T02:10:04;17.27;;;9.13;;
7338;SDS011;33747;49.524;8.390;2023-03-03T02:12:38;11.50;;;7.25;;
7338;SDS011;33747;49.524;8.390;2023-03-03T02:15:16;15.90;;;8.10;;
7338;SDS011;33747;49.524;8.390;2023-03-03T02:17:52;15.15;;;7.82;;
7338;SDS011;33747;49.524;8.390;2023-03-03T02:20:23;14.45;;;8.77;;
7338;SDS011;33747;49.524;8.390;2023-03-03T02:22:59;14.85;;;8.23;;
7338;SDS011;33747;49.524;8.390;2023-03-03T02:28:12;14.77;;;8.52;;
7338;SDS011;33747;49.524;8.390;2023-03-03T02:30:37;13.50;;;8.10;;
7338;SDS011;33747;49.524;8.390;2023-03-03T02:33:03;14.20;;;7.82;;
7338;SDS011;33747;49.524;8.390;2023-03-03T02:35:31;17.17;;;8.27;;
7338;SDS011;33747;49.524;8.390;2023-03-03T02:38:03;14.25;;;8.35;;
7338;SDS011;33747;49.524;8.390;2023-03-03T02:40:35;14.38;;;7.70;;
7338;SDS011;33747;49.524;8.390;2023-03-03T02:43:02;17.45;;;8.75;;
7338;SDS011;33747;49.524;8.390;2023-03-03T02:45:29;15.20;;;8.00;;
7338;SDS011;33747;49.524;8.390;2023-03-03T02:47:54;23.50;;;9.00;;
7338;SDS011;33747;49.524;8.390;2023-03-03T02:50:20;16.33;;;8.63;;
7338;SDS011;33747;49.524;8.390;2023-03-03T02:52:45;15.82;;;8.75;;
7338;SDS011;33747;49.524;8.390;2023-03-03T02:55:10;17.48;;;8.65;;
7338;SDS011;33747;49.524;8.390;2023-03-03T02:57:36;14.18;;;8.30;;
7338;SDS011;33747;49.524;8.390;2023-03-03T03:00:01;17.95;;;9.00;;
7338;SDS011;33747;49.524;8.390;2023-03-03T03:02:27;15.32;;;9.10;;
7338;SDS011;33747;49.524;8.390;2023-03-03T03:04:52;16.73;;;8.93;;
7338;SDS011;33747;49.524;8.390;2023-03-03T03:07:17;16.90;;;9.48;;
7338;SDS011;33747;49.524;8.390;2023-03-03T03:09:43;21.15;;;9.90;;
7338;SDS011;33747;49.524;8.390;2023-03-03T03:12:08;18.45;;;8.90;;
7338;SDS011;33747;49.524;8.390;2023-03-03T03:14:34;15.90;;;9.25;;
7338;SDS011;33747;49.524;8.390;2023-03-03T03:16:59;19.77;;;9.27;;
7338;SDS011;33747;49.524;8.390;2023-03-03T03:19:25;15.57;;;8.82;;
7338;SDS011;33747;49.524;8.390;2023-03-03T03:21:50;24.20;;;10.10;;
7338;SDS011;33747;49.524;8.390;2023-03-03T03:24:16;20.52;;;9.80;;
7338;SDS011;33747;49.524;8.390;2023-03-03T03:26:45;16.23;;;10.23;;
7338;SDS011;33747;49.524;8.390;2023-03-03T03:29:10;16.95;;;10.13;;
7338;SDS011;33747;49.524;8.390;2023-03-03T03:31:36;16.30;;;9.88;;
7338;SDS011;33747;49.524;8.390;2023-03-03T03:34:01;21.60;;;10.27;;
7338;SDS011;33747;49.524;8.390;2023-03-03T03:36:27;17.92;;;10.30;;
7338;SDS011;33747;49.524;8.390;2023-03-03T03:38:52;22.00;;;10.95;;
7338;SDS011;33747;49.524;8.390;2023-03-03T03:41:18;18.05;;;10.23;;
7338;SDS011;33747;49.524;8.390;2023-03-03T03:43:43;20.63;;;11.13;;
7338;SDS011;33747;49.524;8.390;2023-03-03T03:46:09;21.98;;;11.48;;
7338;SDS011;33747;49.524;8.390;2023-03-03T03:48:37;17.60;;;9.93;;
7338;SDS011;33747;49.524;8.390;2023-03-03T03:51:02;21.27;;;10.30;;
7338;SDS011;33747;49.524;8.390;2023-03-03T03:53:28;20.35;;;11.00;;
7338;SDS011;33747;49.524;8.390;2023-03-03T03:55:53;17.40;;;10.13;;
7338;SDS011;33747;49.524;8.390;2023-03-03T03:58:19;21.65;;;11.73;;
7338;SDS011;33747;49.524;8.390;2023-03-03T04:00:46;20.17;;;11.35;;
7338;SDS011;33747;49.524;8.390;2023-03-03T04:03:12;20.58;;;10.88;;
7338;SDS011;33747;49.524;8.390;2023-03-03T04:05:40;18.40;;;11.60;;
7338;SDS011;33747;49.524;8.390;2023-03-03T04:08:06;20.25;;;12.38;;
7338;SDS011;33747;49.524;8.390;2023-03-03T04:10:31;21.02;;;11.45;;
7338;SDS011;33747;49.524;8.390;2023-03-03T04:12:57;22.27;;;12.32;;
7338;SDS011;33747;49.524;8.390;2023-03-03T04:15:22;19.60;;;12.32;;
7338;SDS011;33747;49.524;8.390;2023-03-03T04:17:48;23.45;;;12.43;;
7338;SDS011;33747;49.524;8.390;2023-03-03T04:20:14;24.50;;;13.95;;
7338;SDS011;33747;49.524;8.390;2023-03-03T04:22:40;22.33;;;12.40;;
7338;SDS011;33747;49.524;8.390;2023-03-03T04:25:06;20.35;;;12.43;;
7338;SDS011;33747;49.524;8.390;2023-03-03T04:27:35;21.85;;;12.15;;
7338;SDS011;33747;49.524;8.390;2023-03-03T04:30:02;23.95;;;13.10;;
7338;SDS011;33747;49.524;8.390;2023-03-03T04:32:28;22.50;;;13.23;;
7338;SDS011;33747;49.524;8.390;2023-03-03T04:34:54;22.13;;;13.52;;
7338;SDS011;33747;49.524;8.390;2023-03-03T04:37:20;21.88;;;13.63;;
7338;SDS011;33747;49.524;8.390;2023-03-03T04:39:45;24.80;;;13.65;;
7338;SDS011;33747;49.524;8.390;2023-03-03T04:42:10;22.13;;;12.77;;
7338;SDS011;33747;49.524;8.390;2023-03-03T04:44:36;23.70;;;13.43;;
7338;SDS011;33747;49.524;8.390;2023-03-03T04:47:01;25.08;;;13.82;;
7338;SDS011;33747;49.524;8.390;2023-03-03T04:49:27;21.33;;;13.38;;
7338;SDS011;33747;49.524;8.390;2023-03-03T04:51:52;25.15;;;14.07;;
7338;SDS011;33747;49.524;8.390;2023-03-03T04:54:18;25.98;;;14.13;;
7338;SDS011;33747;49.524;8.390;2023-03-03T04:56:43;23.75;;;14.25;;
7338;SDS011;33747;49.524;8.390;2023-03-03T04:59:08;26.13;;;14.40;;
7338;SDS011;33747;49.524;8.390;2023-03-03T05:01:34;31.23;;;16.50;;
7338;SDS011;33747;49.524;8.390;2023-03-03T05:04:00;27.80;;;14.27;;
7338;SDS011;33747;49.524;8.390;2023-03-03T05:06:25;34.97;;;16.45;;
7338;SDS011;33747;49.524;8.390;2023-03-03T05:08:51;25.05;;;14.98;;
7338;SDS011;33747;49.524;8.390;2023-03-03T05:11:16;25.73;;;14.00;;
7338;SDS011;33747;49.524;8.390;2023-03-03T05:13:41;28.55;;;15.45;;
7338;SDS011;33747;49.524;8.390;2023-03-03T05:16:07;26.48;;;15.40;;
7338;SDS011;33747;49.524;8.390;2023-03-03T05:18:32;31.20;;;16.92;;
7338;SDS011;33747;49.524;8.390;2023-03-03T05:21:00;24.40;;;15.90;;
7338;SDS011;33747;49.524;8.390;2023-03-03T05:23:26;32.92;;;16.63;;
7338;SDS011;33747;49.524;8.390;2023-03-03T05:25:51;31.02;;;17.58;;
7338;SDS011;33747;49.524;8.390;2023-03-03T05:28:17;36.60;;;17.95;;
7338;SDS011;33747;49.524;8.390;2023-03-03T05:30:43;33.85;;;19.40;;
7338;SDS011;33747;49.524;8.390;2023-03-03T05:33:09;36.60;;;18.30;;
7338;SDS011;33747;49.524;8.390;2023-03-03T05:35:37;34.45;;;20.15;;
7338;SDS011;33747;49.524;8.390;2023-03-03T05:38:03;36.75;;;19.70;;
7338;SDS011;33747;49.524;8.390;2023-03-03T05:40:28;37.47;;;20.45;;
7338;SDS011;33747;49.524;8.390;2023-03-03T05:42:54;33.83;;;19.92;;
7338;SDS011;33747;49.524;8.390;2023-03-03T05:45:20;37.65;;;20.00;;
7338;SDS011;33747;49.524;8.390;2023-03-03T05:47:46;36.53;;;21.15;;
7338;SDS011;33747;49.524;8.390;2023-03-03T05:50:12;42.00;;;21.50;;
7338;SDS011;33747;49.524;8.390;2023-03-03T05:52:38;49.38;;;22.48;;
7338;SDS011;33747;49.524;8.390;2023-03-03T05:55:03;39.88;;;22.02;;
7338;SDS011;33747;49.524;8.390;2023-03-03T05:57:29;43.15;;;21.75;;
7338;SDS011;33747;49.524;8.390;2023-03-03T05:59:55;43.60;;;23.15;;
7338;SDS011;33747;49.524;8.390;2023-03-03T06:02:20;42.28;;;22.92;;
7338;SDS011;33747;49.524;8.390;2023-03-03T06:04:46;35.83;;;21.60;;
7338;SDS011;33747;49.524;8.390;2023-03-03T06:07:11;38.08;;;22.50;;
7338;SDS011;33747;49.524;8.390;2023-03-03T06:09:37;41.95;;;23.15;;
7338;SDS011;33747;49.524;8.390;2023-03-03T06:12:02;39.92;;;21.60;;
7338;SDS011;33747;49.524;8.390;2023-03-03T06:14:27;39.88;;;22.45;;
7338;SDS011;33747;49.524;8.390;2023-03-03T06:16:53;36.88;;;22.25;;
7338;SDS011;33747;49.524;8.390;2023-03-03T06:19:18;38.00;;;21.60;;
7338;SDS011;33747;49.524;8.390;2023-03-03T06:21:44;37.58;;;22.75;;
7338;SDS011;33747;49.524;8.390;2023-03-03T06:24:09;40.67;;;21.65;;
7338;SDS011;33747;49.524;8.390;2023-03-03T06:26:34;38.58;;;21.52;;
7338;SDS011;33747;49.524;8.390;2023-03-03T06:29:00;39.83;;;22.88;;
7338;SDS011;33747;49.524;8.390;2023-03-03T06:31:26;41.95;;;21.98;;
7338;SDS011;33747;49.524;8.390;2023-03-03T06:33:51;40.40;;;22.17;;
7338;SDS011;33747;49.524;8.390;2023-03-03T06:36:17;38.10;;;22.00;;
7338;SDS011;33747;49.524;8.390;2023-03-03T06:38:43;38.17;;;21.13;;
7338;SDS011;33747;49.524;8.390;2023-03-03T06:41:09;39.72;;;20.77;;
7338;SDS011;33747;49.524;8.390;2023-03-03T06:43:34;42.65;;;22.63;;
7338;SDS011;33747;49.524;8.390;2023-03-03T06:46:01;36.78;;;21.60;;
7338;SDS011;33747;49.524;8.390;2023-03-03T06:48:26;37.95;;;22.23;;
7338;SDS011;33747;49.524;8.390;2023-03-03T06:50:52;39.33;;;22.60;;
7338;SDS011;33747;49.524;8.390;2023-03-03T06:53:17;47.67;;;23.48;;
7338;SDS011;33747;49.524;8.390;2023-03-03T06:55:43;42.25;;;22.45;;
7338;SDS011;33747;49.524;8.390;2023-03-03T06:58:16;41.38;;;23.45;;
7338;SDS011;33747;49.524;8.390;2023-03-03T07:00:43;42.88;;;23.13;;
7338;SDS011;33747;49.524;8.390;2023-03-03T07:03:16;48.40;;;23.88;;
7338;SDS011;33747;49.524;8.390;2023-03-03T07:05:42;43.22;;;23.33;;
7338;SDS011;33747;49.524;8.390;2023-03-03T07:08:18;49.97;;;24.17;;
7338;SDS011;33747;49.524;8.390;2023-03-03T07:10:45;46.90;;;24.33;;
7338;SDS011;33747;49.524;8.390;2023-03-03T07:13:19;44.63;;;24.38;;
7338;SDS011;33747;49.524;8.390;2023-03-03T07:15:54;41.58;;;24.00;;
7338;SDS011;33747;49.524;8.390;2023-03-03T07:23:48;47.20;;;24.30;;
7338;SDS011;33747;49.524;8.390;2023-03-03T07:26:16;46.45;;;25.08;;
7338;SDS011;33747;49.524;8.390;2023-03-03T07:28:46;45.63;;;26.20;;
7338;SDS011;33747;49.524;8.390;2023-03-03T07:31:40;47.70;;;27.42;;
7338;SDS011;33747;49.524;8.390;2023-03-03T07:34:19;45.25;;;25.20;;
7338;SDS011;33747;49.524;8.390;2023-03-03T07:36:46;47.15;;;26.00;;
7338;SDS011;33747;49.524;8.390;2023-03-03T07:39:18;56.53;;;27.10;;
7338;SDS011;33747;49.524;8.390;2023-03-03T07:41:45;48.28;;;27.35;;
7338;SDS011;33747;49.524;8.390;2023-03-03T07:44:18;47.70;;;27.48;;
7338;SDS011;33747;49.524;8.390;2023-03-03T07:46:46;52.22;;;27.75;;
7338;SDS011;33747;49.524;8.390;2023-03-03T07:49:17;51.45;;;27.83;;
7338;SDS011;33747;49.524;8.390;2023-03-03T07:51:50;46.55;;;27.30;;
7338;SDS011;33747;49.524;8.390;2023-03-03T07:56:56;51.20;;;27.80;;
7338;SDS011;33747;49.524;8.390;2023-03-03T07:59:25;49.05;;;27.42;;
7338;SDS011;33747;49.524;8.390;2023-03-03T08:02:17;50.67;;;27.30;;
7338;SDS011;33747;49.524;8.390;2023-03-03T08:04:54;49.47;;;27.87;;
7338;SDS011;33747;49.524;8.390;2023-03-03T08:07:20;49.58;;;28.25;;
7338;SDS011;33747;49.524;8.390;2023-03-03T08:09:47;47.42;;;27.80;;
7338;SDS011;33747;49.524;8.390;2023-03-03T08:12:17;57.60;;;28.65;;
7338;SDS011;33747;49.524;8.390;2023-03-03T08:14:47;54.13;;;28.13;;
7338;SDS011;33747;49.524;8.390;2023-03-03T08:17:22;51.63;;;27.85;;
7338;SDS011;33747;49.524;8.390;2023-03-03T08:19:50;54.50;;;27.80;;
7338;SDS011;33747;49.524;8.390;2023-03-03T08:22:18;59.05;;;28.23;;
7338;SDS011;33747;49.524;8.390;2023-03-03T08:25:03;50.25;;;29.75;;
7338;SDS011;33747;49.524;8.390;2023-03-03T08:27:29;51.72;;;29.25;;
7338;SDS011;33747;49.524;8.390;2023-03-03T08:29:54;54.08;;;27.98;;
7338;SDS011;33747;49.524;8.390;2023-03-03T08:32:20;55.67;;;26.95;;
7338;SDS011;33747;49.524;8.390;2023-03-03T08:34:45;54.60;;;28.77;;
7338;SDS011;33747;49.524;8.390;2023-03-03T08:37:10;57.92;;;29.88;;
7338;SDS011;33747;49.524;8.390;2023-03-03T08:39:36;51.65;;;29.08;;
7338;SDS011;33747;49.524;8.390;2023-03-03T08:42:01;56.83;;;30.52;;
7338;SDS011;33747;49.524;8.390;2023-03-03T08:44:26;53.35;;;28.23;;
7338;SDS011;33747;49.524;8.390;2023-03-03T08:46:52;57.30;;;28.83;;
7338;SDS011;33747;49.524;8.390;2023-03-03T08:49:17;50.38;;;28.15;;
7338;SDS011;33747;49.524;8.390;2023-03-03T08:51:43;49.58;;;28.83;;
7338;SDS011;33747;49.524;8.390;2023-03-03T08:54:08;52.47;;;27.85;;
7338;SDS011;33747;49.524;8.390;2023-03-03T08:56:33;48.78;;;27.25;;
7338;SDS011;33747;49.524;8.390;2023-03-03T08:58:59;48.50;;;28.40;;
7338;SDS011;33747;49.524;8.390;2023-03-03T09:01:24;56.38;;;28.88;;
7338;SDS011;33747;49.524;8.390;2023-03-03T09:03:50;62.70;;;29.70;;
7338;SDS011;33747;49.524;8.390;2023-03-03T09:06:15;53.13;;;29.92;;
7338;SDS011;33747;49.524;8.390;2023-03-03T09:08:40;47.78;;;29.02;;
7338;SDS011;33747;49.524;8.390;2023-03-03T09:11:10;49.50;;;29.55;;
7338;SDS011;33747;49.524;8.390;2023-03-03T09:13:37;49.33;;;28.42;;
7338;SDS011;33747;49.524;8.390;2023-03-03T09:16:02;53.03;;;29.60;;
7338;SDS011;33747;49.524;8.390;2023-03-03T09:18:35;51.17;;;29.50;;
7338;SDS011;33747;49.524;8.390;2023-03-03T09:21:01;57.22;;;28.20;;
7338;SDS011;33747;49.524;8.390;2023-03-03T09:23:34;48.55;;;27.77;;
7338;SDS011;33747;49.524;8.390;2023-03-03T09:26:11;51.78;;;27.83;;
7338;SDS011;33747;49.524;8.390;2023-03-03T09:28:45;56.30;;;29.13;;
7338;SDS011;33747;49.524;8.390;2023-03-03T09:31:24;50.03;;;29.05;;
7338;SDS011;33747;49.524;8.390;2023-03-03T09:33:50;46.95;;;28.27;;
7338;SDS011;33747;49.524;8.390;2023-03-03T09:36:34;55.30;;;28.02;;
7338;SDS011;33747;49.524;8.390;2023-03-03T09:39:03;57.00;;;30.17;;
7338;SDS011;33747;49.524;8.390;2023-03-03T09:53:09;50.35;;;28.25;;
7338;SDS011;33747;49.524;8.390;2023-03-03T09:55:58;58.60;;;32.15;;
7338;SDS011;33747;49.524;8.390;2023-03-03T10:17:31;50.17;;;28.98;;
7338;SDS011;33747;49.524;8.390;2023-03-03T10:26:15;56.03;;;30.77;;
7338;SDS011;33747;49.524;8.390;2023-03-03T10:29:07;41.70;;;23.35;;
7338;SDS011;33747;49.524;8.390;2023-03-03T10:34:28;54.17;;;29.80;;
7338;SDS011;33747;49.524;8.390;2023-03-03T10:46:05;47.00;;;26.67;;
7338;SDS011;33747;49.524;8.390;2023-03-03T10:56:39;52.33;;;28.17;;
7338;SDS011;33747;49.524;8.390;2023-03-03T10:59:33;48.53;;;28.52;;
7338;SDS011;33747;49.524;8.390;2023-03-03T11:02:07;50.50;;;28.60;;
7338;SDS011;33747;49.524;8.390;2023-03-03T11:07:21;46.45;;;28.60;;
7338;SDS011;33747;49.524;8.390;2023-03-03T11:18:07;52.30;;;27.88;;
7338;SDS011;33747;49.524;8.390;2023-03-03T11:23:23;49.13;;;29.20;;
7338;SDS011;33747;49.524;8.390;2023-03-03T11:31:52;49.22;;;27.88;;
7338;SDS011;33747;49.524;8.390;2023-03-03T11:34:46;47.10;;;28.15;;
7338;SDS011;33747;49.524;8.390;2023-03-03T11:37:28;43.50;;;25.27;;
7338;SDS011;33747;49.524;8.390;2023-03-03T11:40:20;48.10;;;26.60;;
7338;SDS011;33747;49.524;8.390;2023-03-03T11:45:33;45.60;;;26.90;;
7338;SDS011;33747;49.524;8.390;2023-03-03T11:48:09;44.72;;;25.75;;
7338;SDS011;33747;49.524;8.390;2023-03-03T11:50:48;42.38;;;25.17;;
7338;SDS011;33747;49.524;8.390;2023-03-03T12:01:59;42.50;;;24.85;;
7338;SDS011;33747;49.524;8.390;2023-03-03T12:04:46;46.55;;;25.98;;
7338;SDS011;33747;49.524;8.390;2023-03-03T12:12:20;41.70;;;23.77;;
7338;SDS011;33747;49.524;8.390;2023-03-03T12:15:13;41.67;;;24.85;;
7338;SDS011;33747;49.524;8.390;2023-03-03T12:18:08;44.08;;;24.80;;
7338;SDS011;33747;49.524;8.390;2023-03-03T12:20:55;45.60;;;25.30;;
7338;SDS011;33747;49.524;8.390;2023-03-03T12:23:45;42.58;;;25.27;;
7338;SDS011;33747;49.524;8.390;2023-03-03T12:26:29;45.50;;;26.52;;
7338;SDS011;33747;49.524;8.390;2023-03-03T12:29:18;44.88;;;25.20;;
7338;SDS011;33747;49.524;8.390;2023-03-03T12:34:26;45.55;;;26.10;;
7338;SDS011;33747;49.524;8.390;2023-03-03T12:42:52;42.47;;;25.67;;
7338;SDS011;33747;49.524;8.390;2023-03-03T12:53:48;42.10;;;25.30;;
7338;SDS011;33747;49.524;8.390;2023-03-03T12:56:48;41.72;;;23.60;;
7338;SDS011;33747;49.524;8.390;2023-03-03T12:59:20;50.30;;;24.27;;
7338;SDS011;33747;49.524;8.390;2023-03-03T13:04:43;41.03;;;24.45;;
7338;SDS011;33747;49.524;8.390;2023-03-03T13:07:25;47.47;;;24.90;;
7338;SDS011;33747;49.524;8.390;2023-03-03T13:24:06;39.33;;;22.63;;
7338;SDS011;33747;49.524;8.390;2023-03-03T13:26:57;39.47;;;22.83;;
7338;SDS011;33747;49.524;8.390;2023-03-03T13:32:11;35.15;;;22.55;;
7338;SDS011;33747;49.524;8.390;2023-03-03T13:37:43;35.65;;;21.75;;
7338;SDS011;33747;49.524;8.390;2023-03-03T13:40:25;35.83;;;21.13;;
7338;SDS011;33747;49.524;8.390;2023-03-03T13:42:58;33.35;;;21.02;;
7338;SDS011;33747;49.524;8.390;2023-03-03T13:45:40;37.72;;;20.75;;
7338;SDS011;33747;49.524;8.390;2023-03-03T13:48:33;40.55;;;24.20;;
7338;SDS011;33747;49.524;8.390;2023-03-03T13:51:18;36.67;;;21.35;;
7338;SDS011;33747;49.524;8.390;2023-03-03T13:54:31;33.88;;;19.98;;
7338;SDS011;33747;49.524;8.390;2023-03-03T14:02:42;33.08;;;19.77;;
7338;SDS011;33747;49.524;8.390;2023-03-03T14:08:00;35.80;;;20.20;;
7338;SDS011;33747;49.524;8.390;2023-03-03T14:10:35;35.55;;;20.92;;
7338;SDS011;33747;49.524;8.390;2023-03-03T14:13:31;43.67;;;21.27;;
7338;SDS011;33747;49.524;8.390;2023-03-03T14:16:06;38.28;;;19.48;;
7338;SDS011;33747;49.524;8.390;2023-03-03T14:18:38;31.90;;;19.25;;
7338;SDS011;33747;49.524;8.390;2023-03-03T14:21:27;30.45;;;19.00;;
7338;SDS011;33747;49.524;8.390;2023-03-03T14:24:01;32.05;;;19.02;;
7338;SDS011;33747;49.524;8.390;2023-03-03T14:26:44;33.70;;;20.20;;
7338;SDS011;33747;49.524;8.390;2023-03-03T14:29:14;36.03;;;20.48;;
7338;SDS011;33747;49.524;8.390;2023-03-03T14:31:54;31.17;;;18.80;;
7338;SDS011;33747;49.524;8.390;2023-03-03T14:36:58;35.03;;;19.63;;
7338;SDS011;33747;49.524;8.390;2023-03-03T14:39:34;35.15;;;18.45;;
7338;SDS011;33747;49.524;8.390;2023-03-03T14:42:09;33.38;;;17.80;;
7338;SDS011;33747;49.524;8.390;2023-03-03T14:49:38;30.30;;;18.38;;
7338;SDS011;33747;49.524;8.390;2023-03-03T14:52:17;32.90;;;16.90;;
7338;SDS011;33747;49.524;8.390;2023-03-03T14:54:49;29.73;;;17.88;;
7338;SDS011;33747;49.524;8.390;2023-03-03T15:05:14;28.73;;;16.80;;
7338;SDS011;33747;49.524;8.390;2023-03-03T15:07:42;30.35;;;17.08;;
7338;SDS011;33747;49.524;8.390;2023-03-03T15:10:12;28.27;;;16.33;;
7338;SDS011;33747;49.524;8.390;2023-03-03T15:12:50;24.23;;;15.05;;
7338;SDS011;33747;49.524;8.390;2023-03-03T15:15:21;26.55;;;15.45;;
7338;SDS011;33747;49.524;8.390;2023-03-03T15:23:07;26.15;;;15.07;;
7338;SDS011;33747;49.524;8.390;2023-03-03T15:25:55;26.17;;;15.30;;
7338;SDS011;33747;49.524;8.390;2023-03-03T15:31:37;22.50;;;13.55;;
7338;SDS011;33747;49.524;8.390;2023-03-03T15:38:32;23.25;;;12.93;;
7338;SDS011;33747;49.524;8.390;2023-03-03T15:49:13;23.70;;;11.73;;
7338;SDS011;33747;49.524;8.390;2023-03-03T16:02:55;26.50;;;13.30;;
7338;SDS011;33747;49.524;8.390;2023-03-03T16:05:24;20.92;;;12.07;;
7338;SDS011;33747;49.524;8.390;2023-03-03T16:08:04;22.80;;;12.90;;
7338;SDS011;33747;49.524;8.390;2023-03-03T16:16:09;26.10;;;12.32;;
7338;SDS011;33747;49.524;8.390;2023-03-03T16:24:12;19.55;;;11.35;;
7338;SDS011;33747;49.524;8.390;2023-03-03T16:27:03;23.20;;;11.45;;
7338;SDS011;33747;49.524;8.390;2023-03-03T16:32:46;23.02;;;12.43;;
7338;SDS011;33747;49.524;8.390;2023-03-03T16:35:25;25.35;;;12.30;;
7338;SDS011;33747;49.524;8.390;2023-03-03T16:40:32;20.50;;;12.38;;
7338;SDS011;33747;49.524;8.390;2023-03-03T16:46:29;25.77;;;12.82;;
7338;SDS011;33747;49.524;8.390;2023-03-03T16:52:24;22.23;;;12.85;;
7338;SDS011;33747;49.524;8.390;2023-03-03T16:55:14;22.00;;;12.82;;
7338;SDS011;33747;49.524;8.390;2023-03-03T16:57:49;22.10;;;12.82;;
7338;SDS011;33747;49.524;8.390;2023-03-03T17:00:46;22.83;;;13.75;;
7338;SDS011;33747;49.524;8.390;2023-03-03T17:06:17;23.98;;;13.63;;
7338;SDS011;33747;49.524;8.390;2023-03-03T17:14:17;31.15;;;13.40;;
7338;SDS011;33747;49.524;8.390;2023-03-03T17:17:10;27.38;;;14.00;;
7338;SDS011;33747;49.524;8.390;2023-03-03T17:25:52;33.20;;;19.98;;
7338;SDS011;33747;49.524;8.390;2023-03-03T17:31:58;38.60;;;22.23;;
7338;SDS011;33747;49.524;8.390;2023-03-03T17:34:50;44.83;;;23.08;;
7338;SDS011;33747;49.524;8.390;2023-03-03T17:45:37;48.80;;;24.00;;
7338;SDS011;33747;49.524;8.390;2023-03-03T17:50:51;37.00;;;21.67;;
7338;SDS011;33747;49.524;8.390;2023-03-03T17:53:46;38.47;;;22.42;;
7338;SDS011;33747;49.524;8.390;2023-03-03T17:56:26;37.67;;;21.10;;
7338;SDS011;33747;49.524;8.390;2023-03-03T18:15:52;29.33;;;15.93;;
7338;SDS011;33747;49.524;8.390;2023-03-03T18:23:47;20.10;;;12.15;;
7338;SDS011;33747;49.524;8.390;2023-03-03T18:26:32;26.98;;;12.85;;
7338;SDS011;33747;49.524;8.390;2023-03-03T18:29:16;20.20;;;11.48;;
7338;SDS011;33747;49.524;8.390;2023-03-03T18:36:58;21.42;;;10.80;;
7338;SDS011;33747;49.524;8.390;2023-03-03T18:39:44;15.85;;;9.85;;
7338;SDS011;33747;49.524;8.390;2023-03-03T18:44:40;16.98;;;9.55;;
7338;SDS011;33747;49.524;8.390;2023-03-03T18:47:06;18.65;;;9.73;;
7338;SDS011;33747;49.524;8.390;2023-03-03T18:49:51;21.98;;;9.70;;
7338;SDS011;33747;49.524;8.390;2023-03-03T18:52:24;17.38;;;10.18;;
7338;SDS011;33747;49.524;8.390;2023-03-03T18:57:34;21.88;;;10.85;;
7338;SDS011;33747;49.524;8.390;2023-03-03T19:02:55;19.05;;;10.45;;
7338;SDS011;33747;49.524;8.390;2023-03-03T19:05:27;17.88;;;9.70;;
7338;SDS011;33747;49.524;8.390;2023-03-03T19:08:03;18.98;;;10.63;;
7338;SDS011;33747;49.524;8.390;2023-03-03T19:10:44;21.20;;;11.00;;
7338;SDS011;33747;49.524;8.390;2023-03-03T19:24:00;25.88;;;15.48;;
7338;SDS011;33747;49.524;8.390;2023-03-03T19:32:23;32.35;;;17.17;;
7338;SDS011;33747;49.524;8.390;2023-03-03T19:37:42;36.42;;;18.23;;
7338;SDS011;33747;49.524;8.390;2023-03-03T19:40:33;33.47;;;18.95;;
7338;SDS011;33747;49.524;8.390;2023-03-03T19:48:57;43.85;;;20.83;;
7338;SDS011;33747;49.524;8.390;2023-03-03T19:51:31;44.78;;;21.75;;
7338;SDS011;33747;49.524;8.390;2023-03-03T19:54:20;43.47;;;24.13;;
7338;SDS011;33747;49.524;8.390;2023-03-03T19:56:59;42.45;;;24.58;;
7338;SDS011;33747;49.524;8.390;2023-03-03T19:59:35;47.33;;;23.98;;
7338;SDS011;33747;49.524;8.390;2023-03-03T20:05:20;48.60;;;25.13;;
7338;SDS011;33747;49.524;8.390;2023-03-03T20:10:56;42.60;;;23.50;;
7338;SDS011;33747;49.524;8.390;2023-03-03T20:15:56;45.78;;;23.95;;
7338;SDS011;33747;49.524;8.390;2023-03-03T20:26:30;52.83;;;26.98;;
7338;SDS011;33747;49.524;8.390;2023-03-03T20:42:15;51.10;;;29.70;;
7338;SDS011;33747;49.524;8.390;2023-03-03T20:50:01;52.15;;;27.42;;
7338;SDS011;33747;49.524;8.390;2023-03-03T20:52:39;51.42;;;29.50;;
7338;SDS011;33747;49.524;8.390;2023-03-03T20:57:42;52.30;;;29.73;;
7338;SDS011;33747;49.524;8.390;2023-03-03T21:03:47;62.83;;;30.08;;